createdAt,value
2017-07-31T00:00:51.369Z,99.99
2017-07-31T00:01:52.798Z,99.99
2017-07-31T00:02:54.233Z,99.99
2017-07-31T00:03:55.684Z,99.99
2017-07-31T00:04:57.109Z,99.99
2017-07-31T00:05:58.648Z,99.99
2017-07-31T00:07:00.072Z,99.99
2017-07-31T00:08:01.505Z,99.99
2017-07-31T00:09:02.938Z,99.99
2017-07-31T00:10:04.361Z,99.99
2017-07-31T00:11:05.787Z,99.99
2017-07-31T00:12:07.210Z,99.99
2017-07-31T00:13:08.656Z,99.99
2017-07-31T00:14:10.091Z,99.99
2017-07-31T00:15:11.521Z,99.99
2017-07-31T00:16:12.946Z,99.99
2017-07-31T00:17:14.376Z,99.99
2017-07-31T00:18:15.803Z,99.99
2017-07-31T00:19:17.231Z,99.99
2017-07-31T00:20:18.661Z,99.99
2017-07-31T00:21:20.086Z,99.99
2017-07-31T00:22:21.516Z,99.99
2017-07-31T00:23:22.944Z,99.99
2017-07-31T00:24:24.376Z,99.99
2017-07-31T00:25:25.807Z,99.99
2017-07-31T00:26:27.237Z,99.99
2017-07-31T00:27:28.648Z,99.99
2017-07-31T00:28:30.088Z,99.99
2017-07-31T00:29:31.508Z,99.99
2017-07-31T00:30:32.937Z,99.99
2017-07-31T00:31:34.357Z,99.99
2017-07-31T00:32:35.786Z,99.99
2017-07-31T00:33:37.209Z,99.99
2017-07-31T00:34:38.654Z,99.99
2017-07-31T00:35:40.071Z,99.99
2017-07-31T00:36:41.506Z,99.99
2017-07-31T00:37:42.926Z,99.99
2017-07-31T00:38:44.352Z,99.99
2017-07-31T00:39:45.786Z,99.99
2017-07-31T00:40:47.214Z,99.99
2017-07-31T00:41:48.669Z,99.99
2017-07-31T00:42:50.096Z,99.99
2017-07-31T00:43:51.518Z,99.99
2017-07-31T00:44:52.948Z,99.99
2017-07-31T00:45:54.372Z,99.99
2017-07-31T00:46:55.801Z,99.99
2017-07-31T00:47:57.230Z,99.99
2017-07-31T00:48:58.658Z,99.99
2017-07-31T00:50:00.086Z,99.99
2017-07-31T00:51:01.529Z,99.99
2017-07-31T00:52:02.948Z,99.99
2017-07-31T00:53:04.373Z,99.99
2017-07-31T00:54:05.801Z,99.99
2017-07-31T00:55:07.227Z,99.99
2017-07-31T00:56:08.653Z,99.99
2017-07-31T00:57:10.075Z,99.99
2017-07-31T00:58:11.502Z,99.99
2017-07-31T00:59:12.939Z,99.99
2017-07-31T01:00:14.358Z,99.99
2017-07-31T01:01:15.786Z,99.99
2017-07-31T01:02:17.208Z,99.99
2017-07-31T01:03:18.631Z,99.99
2017-07-31T01:04:20.066Z,99.99
2017-07-31T01:05:21.500Z,99.99
2017-07-31T01:06:22.927Z,99.99
2017-07-31T01:07:24.367Z,99.99
2017-07-31T01:08:25.786Z,99.99
2017-07-31T01:09:27.214Z,99.99
2017-07-31T01:10:28.635Z,99.99
2017-07-31T01:11:30.122Z,99.99
2017-07-31T01:12:31.550Z,99.99
2017-07-31T01:13:32.993Z,99.99
2017-07-31T01:14:34.425Z,99.99
2017-07-31T01:15:35.856Z,99.99
2017-07-31T01:16:37.283Z,99.99
2017-07-31T01:17:38.712Z,99.99
2017-07-31T01:18:40.145Z,99.99
2017-07-31T01:19:41.572Z,99.99
2017-07-31T01:20:42.993Z,99.99
2017-07-31T01:21:44.438Z,99.99
2017-07-31T01:22:45.976Z,99.99
2017-07-31T01:23:47.397Z,99.99
2017-07-31T01:24:48.825Z,99.99
2017-07-31T01:25:50.252Z,99.99
2017-07-31T01:26:51.691Z,99.99
2017-07-31T01:27:53.113Z,99.99
2017-07-31T01:28:55.524Z,99.99
2017-07-31T01:29:56.948Z,99.99
2017-07-31T01:30:58.370Z,99.99
2017-07-31T01:31:59.800Z,99.99
2017-07-31T01:33:01.231Z,99.99
2017-07-31T01:34:02.662Z,99.99
2017-07-31T01:35:04.084Z,99.99
2017-07-31T01:36:05.506Z,99.99
2017-07-31T01:37:06.936Z,99.99
2017-07-31T01:38:08.361Z,99.99
2017-07-31T01:39:09.785Z,99.99
2017-07-31T01:40:11.211Z,99.99
2017-07-31T01:41:12.631Z,99.99
2017-07-31T01:42:14.063Z,99.99
2017-07-31T01:43:15.501Z,99.99
2017-07-31T01:44:17.359Z,99.99
2017-07-31T01:45:18.779Z,99.99
2017-07-31T01:46:20.210Z,99.99
2017-07-31T01:47:21.638Z,99.99
2017-07-31T01:48:23.068Z,99.99
2017-07-31T01:49:24.501Z,99.99
2017-07-31T01:50:25.922Z,99.99
2017-07-31T01:51:27.350Z,99.99
2017-07-31T01:52:28.781Z,99.99
2017-07-31T01:53:30.212Z,99.99
2017-07-31T01:54:31.646Z,99.99
2017-07-31T01:55:33.072Z,99.99
2017-07-31T01:56:34.571Z,99.99
2017-07-31T01:57:36.097Z,99.99
2017-07-31T01:58:37.531Z,99.99
2017-07-31T01:59:38.949Z,99.99
2017-07-31T02:00:40.450Z,99.99
2017-07-31T02:01:41.856Z,99.99
2017-07-31T02:02:43.287Z,99.99
2017-07-31T02:03:44.711Z,99.99
2017-07-31T02:04:46.180Z,99.99
2017-07-31T02:05:47.615Z,99.99
2017-07-31T02:06:49.036Z,99.99
2017-07-31T02:07:50.462Z,99.99
2017-07-31T02:08:51.914Z,99.99
2017-07-31T02:09:53.337Z,99.99
2017-07-31T02:10:54.771Z,99.99
2017-07-31T02:11:56.201Z,99.99
2017-07-31T02:12:57.623Z,99.99
2017-07-31T02:13:59.056Z,99.99
2017-07-31T02:15:00.481Z,99.99
2017-07-31T02:16:01.909Z,99.99
2017-07-31T02:17:03.339Z,99.99
2017-07-31T02:18:04.761Z,99.99
2017-07-31T02:19:06.205Z,99.99
2017-07-31T02:20:07.619Z,99.99
2017-07-31T02:21:09.036Z,99.99
2017-07-31T02:22:10.467Z,99.99
2017-07-31T02:23:11.893Z,99.99
2017-07-31T02:24:13.323Z,99.99
2017-07-31T02:25:14.748Z,99.99
2017-07-31T02:26:16.178Z,99.99
2017-07-31T02:27:17.609Z,99.99
2017-07-31T02:28:19.033Z,99.99
2017-07-31T02:29:20.461Z,99.99
2017-07-31T02:30:21.897Z,99.99
2017-07-31T02:31:23.317Z,99.99
2017-07-31T02:32:24.796Z,99.99
2017-07-31T02:33:26.216Z,99.99
2017-07-31T02:34:27.647Z,99.99
2017-07-31T02:35:29.069Z,99.99
2017-07-31T02:36:30.504Z,99.99
2017-07-31T02:37:31.932Z,99.99
2017-07-31T02:38:33.356Z,99.99
2017-07-31T02:39:34.783Z,99.99
2017-07-31T02:40:36.204Z,99.99
2017-07-31T02:41:37.635Z,99.99
2017-07-31T02:42:39.058Z,99.99
2017-07-31T02:43:41.197Z,99.99
2017-07-31T02:44:42.620Z,99.99
2017-07-31T02:45:44.052Z,99.99
2017-07-31T02:46:45.471Z,99.99
2017-07-31T02:47:46.900Z,99.99
2017-07-31T02:48:48.330Z,99.99
2017-07-31T02:49:49.753Z,99.99
2017-07-31T02:50:51.174Z,99.99
2017-07-31T02:51:52.615Z,99.99
2017-07-31T02:52:54.038Z,99.99
2017-07-31T02:53:55.468Z,99.99
2017-07-31T02:54:56.888Z,99.99
2017-07-31T02:55:58.318Z,99.99
2017-07-31T02:56:59.750Z,99.99
2017-07-31T02:58:01.177Z,99.99
2017-07-31T02:59:02.615Z,99.99
2017-07-31T03:00:04.155Z,99.99
2017-07-31T03:01:05.575Z,99.99
2017-07-31T03:02:07.003Z,99.99
2017-07-31T03:03:08.485Z,99.99
2017-07-31T03:04:09.920Z,99.99
2017-07-31T03:05:11.347Z,99.99
2017-07-31T03:06:12.779Z,99.99
2017-07-31T03:07:14.209Z,99.99
2017-07-31T03:08:15.639Z,99.99
2017-07-31T03:09:17.063Z,99.99
2017-07-31T03:10:18.493Z,99.99
2017-07-31T03:11:19.925Z,99.99
2017-07-31T03:12:21.344Z,99.99
2017-07-31T03:13:22.773Z,99.99
2017-07-31T03:14:24.195Z,99.99
2017-07-31T03:15:25.617Z,99.99
2017-07-31T03:16:27.042Z,99.99
2017-07-31T03:17:28.467Z,99.99
2017-07-31T03:18:29.915Z,99.99
2017-07-31T03:19:31.319Z,99.99
2017-07-31T03:20:32.754Z,99.99
2017-07-31T03:21:34.174Z,99.99
2017-07-31T03:22:35.599Z,99.99
2017-07-31T03:23:37.025Z,99.99
2017-07-31T03:24:38.454Z,99.99
2017-07-31T03:25:39.892Z,99.99
2017-07-31T03:26:41.318Z,99.99
2017-07-31T03:27:42.742Z,99.99
2017-07-31T03:28:44.167Z,99.99
2017-07-31T03:29:45.588Z,99.99
2017-07-31T03:30:47.033Z,99.99
2017-07-31T03:31:48.460Z,99.99
2017-07-31T03:32:49.886Z,99.99
2017-07-31T03:33:51.312Z,99.99
2017-07-31T03:34:52.750Z,99.99
2017-07-31T03:35:54.176Z,99.99
2017-07-31T03:36:55.605Z,99.99
2017-07-31T03:37:57.037Z,99.99
2017-07-31T03:38:58.463Z,99.99
2017-07-31T03:39:59.882Z,99.99
2017-07-31T03:41:01.314Z,99.99
2017-07-31T03:42:02.735Z,99.99
2017-07-31T03:43:04.154Z,99.99
2017-07-31T03:44:05.585Z,99.99
2017-07-31T03:45:07.008Z,99.99
2017-07-31T03:46:08.435Z,99.99
2017-07-31T03:47:09.918Z,99.99
2017-07-31T03:48:11.361Z,99.99
2017-07-31T03:49:12.792Z,99.99
2017-07-31T03:50:14.214Z,99.99
2017-07-31T03:51:15.644Z,99.99
2017-07-31T03:52:17.063Z,99.99
2017-07-31T03:53:18.492Z,99.99
2017-07-31T03:54:19.921Z,99.99
2017-07-31T03:55:21.336Z,99.99
2017-07-31T03:56:22.765Z,99.99
2017-07-31T03:57:24.195Z,99.99
2017-07-31T03:58:25.614Z,99.99
2017-07-31T03:59:27.034Z,99.99
2017-07-31T04:00:28.457Z,99.99
2017-07-31T04:01:29.887Z,99.99
2017-07-31T04:02:31.312Z,99.99
2017-07-31T04:03:32.737Z,99.99
2017-07-31T04:04:34.164Z,99.99
2017-07-31T04:05:35.592Z,99.99
2017-07-31T04:06:37.016Z,99.99
2017-07-31T04:07:38.451Z,99.99
2017-07-31T04:08:39.879Z,99.99
2017-07-31T04:09:41.304Z,99.99
2017-07-31T04:10:42.738Z,99.99
2017-07-31T04:11:44.168Z,99.99
2017-07-31T04:12:45.591Z,99.99
2017-07-31T04:13:47.016Z,99.99
2017-07-31T04:14:48.445Z,99.99
2017-07-31T04:15:49.870Z,99.99
2017-07-31T04:16:51.297Z,99.99
2017-07-31T04:17:52.716Z,99.99
2017-07-31T04:18:54.144Z,99.99
2017-07-31T04:19:55.575Z,99.99
2017-07-31T04:20:56.997Z,99.99
2017-07-31T04:21:58.419Z,99.99
2017-07-31T04:22:59.845Z,99.99
2017-07-31T04:24:01.278Z,99.99
2017-07-31T04:25:02.706Z,99.99
2017-07-31T04:26:04.130Z,99.99
2017-07-31T04:27:05.551Z,99.99
2017-07-31T04:28:06.977Z,99.99
2017-07-31T04:29:08.409Z,99.99
2017-07-31T04:30:09.840Z,99.99
2017-07-31T04:31:11.258Z,99.99
2017-07-31T04:32:12.707Z,99.99
2017-07-31T04:33:14.133Z,99.99
2017-07-31T04:34:15.581Z,99.99
2017-07-31T04:35:17.009Z,99.99
2017-07-31T04:36:18.440Z,99.99
2017-07-31T04:37:19.865Z,99.99
2017-07-31T04:38:21.293Z,99.99
2017-07-31T04:39:22.718Z,99.99
2017-07-31T04:40:24.153Z,99.99
2017-07-31T04:41:25.583Z,99.99
2017-07-31T04:42:27.011Z,99.99
2017-07-31T04:43:28.441Z,99.99
2017-07-31T04:44:29.873Z,99.99
2017-07-31T04:45:31.297Z,99.99
2017-07-31T04:46:32.735Z,99.99
2017-07-31T04:47:34.159Z,99.99
2017-07-31T04:48:35.583Z,99.99
2017-07-31T04:49:37.016Z,99.99
2017-07-31T04:50:38.436Z,99.99
2017-07-31T04:51:39.870Z,99.99
2017-07-31T04:52:41.303Z,99.99
2017-07-31T04:53:42.730Z,99.99
2017-07-31T04:54:44.164Z,99.99
2017-07-31T04:55:45.589Z,99.99
2017-07-31T04:56:47.014Z,99.99
2017-07-31T04:57:48.439Z,99.99
2017-07-31T04:58:49.873Z,99.99
2017-07-31T04:59:51.296Z,99.99
2017-07-31T05:00:52.727Z,99.99
2017-07-31T05:01:54.158Z,99.99
2017-07-31T05:02:55.591Z,99.99
2017-07-31T05:03:57.023Z,99.99
2017-07-31T05:04:58.460Z,99.99
2017-07-31T05:05:59.899Z,99.99
2017-07-31T05:07:01.320Z,99.99
2017-07-31T05:08:02.753Z,99.99
2017-07-31T05:09:04.183Z,99.99
2017-07-31T05:10:05.609Z,99.99
2017-07-31T05:11:07.043Z,99.99
2017-07-31T05:12:08.508Z,99.99
2017-07-31T05:13:09.948Z,99.99
2017-07-31T05:14:11.375Z,99.99
2017-07-31T05:15:12.800Z,99.99
2017-07-31T05:16:14.266Z,99.99
2017-07-31T05:17:15.699Z,99.99
2017-07-31T05:18:17.125Z,99.99
2017-07-31T05:19:18.557Z,99.99
2017-07-31T05:20:20.003Z,99.99
2017-07-31T05:21:21.423Z,99.99
2017-07-31T05:22:22.853Z,99.99
2017-07-31T05:23:24.280Z,99.99
2017-07-31T05:24:25.719Z,99.99
2017-07-31T05:25:27.147Z,99.99
2017-07-31T05:26:28.581Z,99.99
2017-07-31T05:27:30.010Z,99.99
2017-07-31T05:28:32.058Z,99.99
2017-07-31T05:29:33.487Z,99.99
2017-07-31T05:30:34.915Z,99.99
2017-07-31T05:31:36.379Z,99.99
2017-07-31T05:32:37.809Z,99.99
2017-07-31T05:33:39.243Z,99.99
2017-07-31T05:34:40.667Z,99.99
2017-07-31T05:35:42.122Z,99.99
2017-07-31T05:36:43.554Z,99.99
2017-07-31T05:37:45.158Z,99.99
2017-07-31T05:38:46.601Z,99.99
2017-07-31T05:39:48.033Z,99.99
2017-07-31T05:40:49.462Z,99.99
2017-07-31T05:41:50.892Z,99.99
2017-07-31T05:42:52.325Z,99.99
2017-07-31T05:43:53.755Z,99.99
2017-07-31T05:44:55.186Z,99.99
2017-07-31T05:45:56.866Z,99.99
2017-07-31T05:46:58.300Z,99.99
2017-07-31T05:47:59.720Z,99.99
2017-07-31T05:49:01.146Z,99.99
2017-07-31T05:50:02.582Z,99.99
2017-07-31T05:51:04.007Z,99.99
2017-07-31T05:52:05.444Z,99.99
2017-07-31T05:53:06.872Z,99.99
2017-07-31T05:54:08.299Z,99.99
2017-07-31T05:55:09.730Z,99.99
2017-07-31T05:56:11.168Z,99.99
2017-07-31T05:57:12.614Z,99.99
2017-07-31T05:58:14.037Z,99.99
2017-07-31T05:59:15.613Z,99.99
2017-07-31T06:00:17.023Z,99.99
2017-07-31T06:01:18.455Z,99.99
2017-07-31T06:02:19.886Z,99.99
2017-07-31T06:03:21.304Z,99.99
2017-07-31T06:04:22.731Z,99.99
2017-07-31T06:05:24.840Z,99.99
2017-07-31T06:06:26.268Z,99.99
2017-07-31T06:07:29.282Z,99.99
2017-07-31T06:08:30.710Z,99.99
2017-07-31T06:09:32.142Z,99.99
2017-07-31T06:10:33.570Z,99.99
2017-07-31T06:11:34.999Z,99.99
2017-07-31T06:12:36.431Z,99.99
2017-07-31T06:13:37.873Z,99.99
2017-07-31T06:14:39.307Z,99.99
2017-07-31T06:15:40.730Z,99.99
2017-07-31T06:16:42.164Z,99.99
2017-07-31T06:17:43.595Z,99.99
2017-07-31T06:18:45.024Z,99.99
2017-07-31T06:19:46.455Z,99.99
2017-07-31T06:20:47.884Z,99.99
2017-07-31T06:21:49.313Z,99.99
2017-07-31T06:22:52.017Z,99.99
2017-07-31T06:23:53.448Z,99.99
2017-07-31T06:24:55.009Z,99.99
2017-07-31T06:25:56.447Z,99.99
2017-07-31T06:26:57.891Z,99.99
2017-07-31T06:27:59.367Z,99.99
2017-07-31T06:29:00.794Z,99.99
2017-07-31T06:30:02.270Z,99.99
2017-07-31T06:31:03.719Z,99.99
2017-07-31T06:32:05.129Z,99.99
2017-07-31T06:33:06.561Z,99.99
2017-07-31T06:34:07.987Z,99.99
2017-07-31T06:35:09.428Z,99.99
2017-07-31T06:36:10.861Z,99.99
2017-07-31T06:37:12.291Z,99.99
2017-07-31T06:38:13.721Z,99.99
2017-07-31T06:39:15.149Z,99.99
2017-07-31T06:40:16.594Z,99.99
2017-07-31T06:41:18.056Z,99.99
2017-07-31T06:42:19.490Z,99.99
2017-07-31T06:43:21.684Z,99.99
2017-07-31T06:44:23.111Z,99.99
2017-07-31T06:45:24.546Z,99.99
2017-07-31T06:46:25.968Z,99.99
2017-07-31T06:47:27.408Z,99.99
2017-07-31T06:48:28.838Z,99.99
2017-07-31T06:49:30.276Z,99.99
2017-07-31T06:50:31.703Z,99.99
2017-07-31T06:51:33.136Z,99.99
2017-07-31T06:52:34.561Z,99.99
2017-07-31T06:53:35.997Z,99.99
2017-07-31T06:54:37.435Z,99.99
2017-07-31T06:55:38.870Z,99.99
2017-07-31T06:56:40.297Z,99.99
2017-07-31T06:57:41.736Z,99.99
2017-07-31T06:58:43.169Z,99.99
2017-07-31T06:59:44.601Z,99.99
2017-07-31T07:00:46.036Z,99.99
2017-07-31T07:01:47.468Z,99.99
2017-07-31T07:02:48.890Z,99.99
2017-07-31T07:03:50.320Z,99.99
2017-07-31T07:04:51.746Z,99.99
2017-07-31T07:05:53.174Z,99.99
2017-07-31T07:06:54.602Z,99.99
2017-07-31T07:07:56.043Z,99.99
2017-07-31T07:08:57.469Z,99.99
2017-07-31T07:09:58.899Z,99.99
2017-07-31T07:11:00.340Z,99.99
2017-07-31T07:12:01.769Z,99.99
2017-07-31T07:13:03.201Z,99.99
2017-07-31T07:14:04.640Z,99.99
2017-07-31T07:15:06.068Z,99.99
2017-07-31T07:16:07.504Z,99.99
2017-07-31T07:17:08.938Z,99.99
2017-07-31T07:18:10.371Z,99.99
2017-07-31T07:19:11.800Z,99.99
2017-07-31T07:20:13.231Z,99.99
2017-07-31T07:21:14.661Z,99.99
2017-07-31T07:22:16.094Z,99.99
2017-07-31T07:23:17.522Z,99.99
2017-07-31T07:24:18.954Z,99.99
2017-07-31T07:25:20.381Z,99.99
2017-07-31T07:26:21.809Z,99.99
2017-07-31T07:27:23.251Z,99.99
2017-07-31T07:28:24.676Z,99.99
2017-07-31T07:29:26.118Z,99.99
2017-07-31T07:30:27.540Z,99.45
2017-07-31T07:31:28.974Z,99.99
2017-07-31T07:32:30.398Z,99.99
2017-07-31T07:33:31.830Z,99.99
2017-07-31T07:34:33.257Z,99.99
2017-07-31T07:35:34.688Z,99.99
2017-07-31T07:36:36.115Z,99.84
2017-07-31T07:37:37.541Z,99.99
2017-07-31T07:38:38.970Z,99.99
2017-07-31T07:39:40.410Z,99.65
2017-07-31T07:40:41.843Z,97.04
2017-07-31T07:41:43.270Z,97.33
2017-07-31T07:42:44.703Z,97.42
2017-07-31T07:43:46.139Z,99.99
2017-07-31T07:44:47.570Z,99.74
2017-07-31T07:45:49.006Z,96.56
2017-07-31T07:46:50.449Z,98.73
2017-07-31T07:47:51.885Z,97.09
2017-07-31T07:48:53.319Z,98.15
2017-07-31T07:49:54.753Z,95.93
2017-07-31T07:50:56.186Z,97.28
2017-07-31T07:51:57.623Z,97.47
2017-07-31T07:52:59.049Z,94.77
2017-07-31T07:54:00.484Z,96.41
2017-07-31T07:55:02.024Z,95.74
2017-07-31T07:56:03.462Z,97.19
2017-07-31T07:57:04.888Z,94.68
2017-07-31T07:58:06.324Z,97.19
2017-07-31T07:59:07.754Z,95.93
2017-07-31T08:00:09.183Z,95.74
2017-07-31T08:01:10.671Z,93.42
2017-07-31T08:02:12.213Z,94.68
2017-07-31T08:03:13.644Z,94.48
2017-07-31T08:04:15.072Z,94.14
2017-07-31T08:05:16.500Z,95.68
2017-07-31T08:06:17.935Z,96.08
2017-07-31T08:07:19.366Z,95.01
2017-07-31T08:08:20.797Z,94.34
2017-07-31T08:09:22.226Z,93.27
2017-07-31T08:10:23.658Z,92.02
2017-07-31T08:11:25.089Z,93.56
2017-07-31T08:12:26.530Z,92.79
2017-07-31T08:13:27.973Z,92.98
2017-07-31T08:14:29.403Z,91.05
2017-07-31T08:15:30.826Z,90.28
2017-07-31T08:16:32.254Z,89.31
2017-07-31T08:17:33.694Z,90.09
2017-07-31T08:18:35.120Z,90.28
2017-07-31T08:19:36.548Z,91.19
2017-07-31T08:20:37.980Z,91.00
2017-07-31T08:21:39.409Z,90.77
2017-07-31T08:22:40.836Z,89.55
2017-07-31T08:23:42.268Z,86.07
2017-07-31T08:24:43.703Z,86.36
2017-07-31T08:25:45.131Z,86.27
2017-07-31T08:26:46.563Z,90.61
2017-07-31T08:27:47.995Z,88.39
2017-07-31T08:28:49.434Z,87.71
2017-07-31T08:29:50.873Z,87.43
2017-07-31T08:30:52.308Z,88.20
2017-07-31T08:31:53.741Z,90.52
2017-07-31T08:32:55.184Z,88.49
2017-07-31T08:33:56.613Z,89.07
2017-07-31T08:34:58.046Z,86.07
2017-07-31T08:35:59.471Z,86.69
2017-07-31T08:37:00.910Z,85.21
2017-07-31T08:38:02.339Z,87.91
2017-07-31T08:39:03.779Z,87.81
2017-07-31T08:40:05.223Z,88.15
2017-07-31T08:41:06.654Z,88.63
2017-07-31T08:42:08.086Z,87.08
2017-07-31T08:43:09.519Z,86.99
2017-07-31T08:44:10.949Z,84.67
2017-07-31T08:45:12.383Z,84.61
2017-07-31T08:46:13.815Z,85.29
2017-07-31T08:47:15.245Z,86.45
2017-07-31T08:48:16.683Z,86.16
2017-07-31T08:49:18.111Z,84.90
2017-07-31T08:50:19.549Z,84.42
2017-07-31T08:51:20.985Z,83.64
2017-07-31T08:52:23.273Z,85.72
2017-07-31T08:53:24.703Z,85.42
2017-07-31T08:54:26.136Z,85.68
2017-07-31T08:55:27.574Z,85.42
2017-07-31T08:56:29.001Z,84.99
2017-07-31T08:57:30.441Z,84.69
2017-07-31T08:58:32.677Z,84.69
2017-07-31T08:59:34.122Z,86.24
2017-07-31T09:00:35.551Z,85.37
2017-07-31T09:01:36.986Z,84.66
2017-07-31T09:02:38.422Z,85.08
2017-07-31T09:03:39.859Z,85.57
2017-07-31T09:04:41.296Z,86.05
2017-07-31T09:05:42.734Z,83.30
2017-07-31T09:06:44.161Z,83.49
2017-07-31T09:07:45.591Z,84.17
2017-07-31T09:08:47.034Z,83.98
2017-07-31T09:09:48.460Z,85.82
2017-07-31T09:10:49.901Z,83.63
2017-07-31T09:11:51.353Z,83.69
2017-07-31T09:12:52.783Z,82.62
2017-07-31T09:13:54.222Z,84.36
2017-07-31T09:14:55.671Z,85.18
2017-07-31T09:15:57.095Z,87.45
2017-07-31T09:16:58.528Z,86.68
2017-07-31T09:17:59.966Z,85.75
2017-07-31T09:19:01.401Z,83.13
2017-07-31T09:20:02.832Z,81.93
2017-07-31T09:21:04.271Z,86.29
2017-07-31T09:22:05.698Z,85.41
2017-07-31T09:23:07.133Z,82.03
2017-07-31T09:24:08.568Z,82.60
2017-07-31T09:25:10.011Z,82.32
2017-07-31T09:26:11.437Z,84.06
2017-07-31T09:27:12.884Z,85.07
2017-07-31T09:28:14.420Z,84.06
2017-07-31T09:29:15.859Z,86.29
2017-07-31T09:30:17.292Z,83.53
2017-07-31T09:31:18.735Z,81.37
2017-07-31T09:32:20.182Z,83.63
2017-07-31T09:33:21.614Z,83.44
2017-07-31T09:34:23.053Z,84.60
2017-07-31T09:35:24.523Z,84.50
2017-07-31T09:36:25.949Z,85.18
2017-07-31T09:37:27.380Z,83.25
2017-07-31T09:38:28.812Z,84.01
2017-07-31T09:39:30.249Z,83.83
2017-07-31T09:40:31.684Z,83.73
2017-07-31T09:41:33.111Z,82.12
2017-07-31T09:42:34.556Z,83.38
2017-07-31T09:43:35.990Z,84.64
2017-07-31T09:44:37.428Z,83.73
2017-07-31T09:45:38.882Z,84.31
2017-07-31T09:46:40.319Z,84.01
2017-07-31T09:47:41.764Z,83.83
2017-07-31T09:48:43.203Z,82.03
2017-07-31T09:49:44.675Z,81.93
2017-07-31T09:50:46.112Z,81.45
2017-07-31T09:51:47.540Z,81.89
2017-07-31T09:52:48.978Z,81.89
2017-07-31T09:53:50.409Z,81.79
2017-07-31T09:54:51.858Z,81.73
2017-07-31T09:55:53.287Z,82.17
2017-07-31T09:56:54.716Z,83.23
2017-07-31T09:57:57.134Z,82.07
2017-07-31T09:58:58.572Z,80.67
2017-07-31T10:00:00.002Z,80.28
2017-07-31T10:01:01.438Z,80.77
2017-07-31T10:02:02.880Z,78.97
2017-07-31T10:03:04.317Z,77.96
2017-07-31T10:04:05.748Z,78.54
2017-07-31T10:05:07.181Z,75.87
2017-07-31T10:06:08.622Z,77.36
2017-07-31T10:07:10.054Z,77.12
2017-07-31T10:08:11.489Z,76.00
2017-07-31T10:09:12.916Z,78.42
2017-07-31T10:10:14.349Z,75.03
2017-07-31T10:11:15.783Z,74.26
2017-07-31T10:12:17.225Z,73.77
2017-07-31T10:13:18.664Z,69.70
2017-07-31T10:14:20.098Z,70.15
2017-07-31T10:15:21.541Z,71.02
2017-07-31T10:16:22.974Z,71.99
2017-07-31T10:17:24.409Z,69.76
2017-07-31T10:18:25.846Z,69.08
2017-07-31T10:19:27.286Z,74.64
2017-07-31T10:20:28.718Z,70.47
2017-07-31T10:21:30.154Z,73.42
2017-07-31T10:22:31.591Z,71.25
2017-07-31T10:23:33.027Z,73.58
2017-07-31T10:24:34.464Z,69.47
2017-07-31T10:25:35.901Z,68.15
2017-07-31T10:26:37.345Z,67.85
2017-07-31T10:27:38.775Z,66.40
2017-07-31T10:28:40.211Z,64.95
2017-07-31T10:29:41.650Z,63.07
2017-07-31T10:30:43.081Z,66.66
2017-07-31T10:31:44.516Z,64.34
2017-07-31T10:32:45.949Z,64.17
2017-07-31T10:33:47.392Z,64.14
2017-07-31T10:34:48.824Z,64.85
2017-07-31T10:35:50.264Z,64.37
2017-07-31T10:36:51.711Z,63.40
2017-07-31T10:37:53.150Z,66.72
2017-07-31T10:38:54.584Z,63.53
2017-07-31T10:39:56.012Z,65.66
2017-07-31T10:40:57.445Z,63.04
2017-07-31T10:41:58.894Z,61.71
2017-07-31T10:43:00.328Z,64.43
2017-07-31T10:44:01.760Z,62.07
2017-07-31T10:45:03.201Z,61.98
2017-07-31T10:46:04.634Z,64.20
2017-07-31T10:47:06.075Z,64.40
2017-07-31T10:48:07.520Z,63.46
2017-07-31T10:49:08.955Z,65.24
2017-07-31T10:50:10.397Z,65.24
2017-07-31T10:51:11.839Z,64.36
2017-07-31T10:52:13.282Z,64.92
2017-07-31T10:53:14.721Z,64.14
2017-07-31T10:54:16.164Z,65.59
2017-07-31T10:55:17.612Z,65.50
2017-07-31T10:56:19.044Z,64.01
2017-07-31T10:57:20.481Z,65.50
2017-07-31T10:58:21.917Z,67.02
2017-07-31T10:59:24.171Z,65.47
2017-07-31T11:00:25.604Z,63.78
2017-07-31T11:01:27.043Z,64.85
2017-07-31T11:02:28.476Z,61.85
2017-07-31T11:03:29.918Z,63.33
2017-07-31T11:04:31.352Z,64.01
2017-07-31T11:05:32.790Z,65.24
2017-07-31T11:06:34.225Z,65.56
2017-07-31T11:07:35.658Z,66.95
2017-07-31T11:08:37.092Z,66.82
2017-07-31T11:09:38.528Z,66.82
2017-07-31T11:10:39.988Z,66.44
2017-07-31T11:11:41.427Z,66.37
2017-07-31T11:12:42.870Z,64.92
2017-07-31T11:13:44.303Z,66.27
2017-07-31T11:14:45.741Z,66.72
2017-07-31T11:15:47.183Z,65.72
2017-07-31T11:16:48.620Z,61.71
2017-07-31T11:17:50.078Z,63.78
2017-07-31T11:18:51.846Z,63.20
2017-07-31T11:19:53.286Z,66.21
2017-07-31T11:20:54.698Z,65.33
2017-07-31T11:21:56.136Z,64.46
2017-07-31T11:22:57.722Z,64.46
2017-07-31T11:24:00.034Z,64.33
2017-07-31T11:25:01.471Z,62.46
2017-07-31T11:26:02.909Z,63.65
2017-07-31T11:27:04.343Z,66.89
2017-07-31T11:28:05.781Z,66.89
2017-07-31T11:29:07.299Z,66.40
2017-07-31T11:30:08.747Z,65.24
2017-07-31T11:31:10.189Z,65.43
2017-07-31T11:32:11.622Z,67.41
2017-07-31T11:33:13.064Z,65.47
2017-07-31T11:34:14.519Z,68.02
2017-07-31T11:35:17.724Z,67.18
2017-07-31T11:36:19.164Z,65.50
2017-07-31T11:37:20.599Z,64.23
2017-07-31T11:38:22.040Z,63.62
2017-07-31T11:39:23.472Z,64.36
2017-07-31T11:40:24.913Z,66.79
2017-07-31T11:41:26.994Z,65.62
2017-07-31T11:42:28.429Z,64.69
2017-07-31T11:43:29.878Z,63.59
2017-07-31T11:44:31.314Z,62.71
2017-07-31T11:45:32.748Z,62.81
2017-07-31T11:46:34.396Z,59.12
2017-07-31T11:47:35.825Z,61.35
2017-07-31T11:48:37.259Z,61.65
2017-07-31T11:49:38.702Z,63.10
2017-07-31T11:50:40.142Z,62.81
2017-07-31T11:51:41.570Z,62.04
2017-07-31T11:52:42.994Z,61.61
2017-07-31T11:53:44.439Z,64.36
2017-07-31T11:54:45.874Z,61.98
2017-07-31T11:55:47.310Z,65.01
2017-07-31T11:56:48.741Z,67.05
2017-07-31T11:57:50.183Z,64.95
2017-07-31T11:58:51.626Z,64.72
2017-07-31T11:59:53.066Z,66.21
2017-07-31T12:00:54.504Z,67.47
2017-07-31T12:01:55.941Z,65.62
2017-07-31T12:02:57.383Z,65.79
2017-07-31T12:03:58.824Z,65.11
2017-07-31T12:05:00.267Z,66.47
2017-07-31T12:06:01.693Z,66.30
2017-07-31T12:07:03.945Z,63.65
2017-07-31T12:08:05.371Z,66.27
2017-07-31T12:09:06.807Z,65.11
2017-07-31T12:10:08.591Z,65.20
2017-07-31T12:11:10.086Z,66.24
2017-07-31T12:12:11.514Z,67.79
2017-07-31T12:13:12.953Z,67.95
2017-07-31T12:14:14.385Z,65.82
2017-07-31T12:15:15.871Z,66.40
2017-07-31T12:16:17.310Z,67.27
2017-07-31T12:17:19.096Z,66.50
2017-07-31T12:18:20.592Z,67.21
2017-07-31T12:19:22.034Z,66.63
2017-07-31T12:20:24.064Z,70.21
2017-07-31T12:21:25.506Z,69.41
2017-07-31T12:22:26.945Z,68.73
2017-07-31T12:23:28.383Z,68.25
2017-07-31T12:24:29.843Z,68.28
2017-07-31T12:25:31.281Z,66.92
2017-07-31T12:26:32.720Z,67.66
2017-07-31T12:27:34.153Z,66.40
2017-07-31T12:28:35.758Z,66.40
2017-07-31T12:29:37.167Z,69.18
2017-07-31T12:30:38.654Z,66.47
2017-07-31T12:31:41.723Z,69.18
2017-07-31T12:32:43.139Z,70.15
2017-07-31T12:33:44.869Z,66.82
2017-07-31T12:34:47.191Z,67.14
2017-07-31T12:35:48.623Z,66.08
2017-07-31T12:36:50.106Z,70.67
2017-07-31T12:37:51.719Z,70.48
2017-07-31T12:38:56.317Z,67.57
2017-07-31T12:39:57.850Z,69.02
2017-07-31T12:40:59.386Z,67.76
2017-07-31T12:42:00.786Z,66.30
2017-07-31T12:43:02.219Z,66.24
2017-07-31T12:44:04.194Z,65.50
2017-07-31T12:45:06.226Z,65.04
2017-07-31T12:46:07.661Z,63.68
2017-07-31T12:47:09.108Z,65.20
2017-07-31T12:48:11.201Z,65.11
2017-07-31T12:49:12.648Z,61.80
2017-07-31T12:50:14.094Z,65.23
2017-07-31T12:51:15.616Z,61.44
2017-07-31T12:52:17.207Z,63.59
2017-07-31T12:53:18.639Z,64.95
2017-07-31T12:54:20.084Z,64.56
2017-07-31T12:55:21.533Z,62.45
2017-07-31T12:56:22.979Z,61.18
2017-07-31T12:57:24.646Z,62.54
2017-07-31T12:58:26.549Z,61.80
2017-07-31T12:59:28.043Z,60.21
2017-07-31T13:00:29.490Z,61.83
2017-07-31T13:01:31.184Z,62.32
2017-07-31T13:02:32.646Z,58.89
2017-07-31T13:03:34.696Z,62.32
2017-07-31T13:04:36.635Z,59.67
2017-07-31T13:05:38.078Z,60.67
2017-07-31T13:06:39.517Z,60.86
2017-07-31T13:07:40.955Z,58.92
2017-07-31T13:08:42.452Z,61.44
2017-07-31T13:09:43.893Z,59.99
2017-07-31T13:10:45.341Z,62.61
2017-07-31T13:11:46.784Z,63.20